sensor_id;sensor_type;location;lat;lon;timestamp;temperature;humidity
33831;DHT22;20137;48.834;8.732;2023-11-18T00:01:24;4.50;99.90
33831;DHT22;20137;48.834;8.732;2023-11-18T00:03:50;4.60;99.90
33831;DHT22;20137;48.834;8.732;2023-11-18T00:06:16;4.60;99.90
33831;DHT22;20137;48.834;8.732;2023-11-18T00:08:42;4.60;99.90
33831;DHT22;20137;48.834;8.732;2023-11-18T00:11:08;4.70;99.90
33831;DHT22;20137;48.834;8.732;2023-11-18T00:13:36;4.70;99.90
33831;DHT22;20137;48.834;8.732;2023-11-18T00:16:05;4.70;99.90
33831;DHT22;20137;48.834;8.732;2023-11-18T00:18:31;4.70;99.90
33831;DHT22;20137;48.834;8.732;2023-11-18T00:20:57;4.70;99.90
33831;DHT22;20137;48.834;8.732;2023-11-18T00:23:23;4.80;99.90
33831;DHT22;20137;48.834;8.732;2023-11-18T00:25:49;4.80;99.90
33831;DHT22;20137;48.834;8.732;2023-11-18T00:28:15;4.90;99.90
33831;DHT22;20137;48.834;8.732;2023-11-18T00:30:41;4.80;99.90
33831;DHT22;20137;48.834;8.732;2023-11-18T00:33:06;4.80;99.90
33831;DHT22;20137;48.834;8.732;2023-11-18T00:35:32;4.80;99.90
33831;DHT22;20137;48.834;8.732;2023-11-18T00:37:59;4.70;99.90
33831;DHT22;20137;48.834;8.732;2023-11-18T00:40:28;4.70;99.90
33831;DHT22;20137;48.834;8.732;2023-11-18T00:42:58;4.60;99.90
33831;DHT22;20137;48.834;8.732;2023-11-18T00:45:24;4.70;99.90
33831;DHT22;20137;48.834;8.732;2023-11-18T00:47:49;4.60;99.90
33831;DHT22;20137;48.834;8.732;2023-11-18T00:50:15;4.70;99.90
33831;DHT22;20137;48.834;8.732;2023-11-18T00:52:41;4.60;99.90
33831;DHT22;20137;48.834;8.732;2023-11-18T00:55:08;4.60;99.90
33831;DHT22;20137;48.834;8.732;2023-11-18T00:57:34;4.70;99.90
33831;DHT22;20137;48.834;8.732;2023-11-18T01:00:00;4.60;99.90
33831;DHT22;20137;48.834;8.732;2023-11-18T01:02:26;4.50;99.90
33831;DHT22;20137;48.834;8.732;2023-11-18T01:04:53;4.60;99.90
33831;DHT22;20137;48.834;8.732;2023-11-18T01:07:19;4.50;99.90
33831;DHT22;20137;48.834;8.732;2023-11-18T01:09:44;4.60;99.90
33831;DHT22;20137;48.834;8.732;2023-11-18T01:12:10;4.70;99.90
33831;DHT22;20137;48.834;8.732;2023-11-18T01:14:37;4.50;99.90
33831;DHT22;20137;48.834;8.732;2023-11-18T01:17:07;4.70;99.90
33831;DHT22;20137;48.834;8.732;2023-11-18T01:19:32;4.60;99.90
33831;DHT22;20137;48.834;8.732;2023-11-18T01:21:59;4.60;99.90
33831;DHT22;20137;48.834;8.732;2023-11-18T01:24:25;4.70;99.90
33831;DHT22;20137;48.834;8.732;2023-11-18T01:26:50;4.70;99.90
33831;DHT22;20137;48.834;8.732;2023-11-18T01:29:16;4.80;99.90
33831;DHT22;20137;48.834;8.732;2023-11-18T01:31:42;4.70;99.90
33831;DHT22;20137;48.834;8.732;2023-11-18T01:34:09;4.70;99.90
33831;DHT22;20137;48.834;8.732;2023-11-18T01:36:35;4.70;99.90
33831;DHT22;20137;48.834;8.732;2023-11-18T01:39:00;4.70;99.90
33831;DHT22;20137;48.834;8.732;2023-11-18T01:41:26;4.70;99.90
33831;DHT22;20137;48.834;8.732;2023-11-18T01:43:52;4.70;99.90
33831;DHT22;20137;48.834;8.732;2023-11-18T01:46:19;4.60;99.90
33831;DHT22;20137;48.834;8.732;2023-11-18T01:48:46;4.60;99.90
33831;DHT22;20137;48.834;8.732;2023-11-18T01:51:13;4.60;99.90
33831;DHT22;20137;48.834;8.732;2023-11-18T01:53:40;4.70;99.90
33831;DHT22;20137;48.834;8.732;2023-11-18T01:56:08;4.50;99.90
33831;DHT22;20137;48.834;8.732;2023-11-18T01:58:43;4.50;99.90
33831;DHT22;20137;48.834;8.732;2023-11-18T02:01:12;4.60;99.90
33831;DHT22;20137;48.834;8.732;2023-11-18T02:03:44;4.50;99.90
33831;DHT22;20137;48.834;8.732;2023-11-18T02:06:11;4.40;99.90
33831;DHT22;20137;48.834;8.732;2023-11-18T02:08:43;4.40;99.90
33831;DHT22;20137;48.834;8.732;2023-11-18T02:11:20;4.40;99.90
33831;DHT22;20137;48.834;8.732;2023-11-18T02:13:57;4.30;99.90
33831;DHT22;20137;48.834;8.732;2023-11-18T02:16:25;4.20;99.90
33831;DHT22;20137;48.834;8.732;2023-11-18T02:18:52;4.20;99.90
33831;DHT22;20137;48.834;8.732;2023-11-18T02:21:19;4.10;99.90
33831;DHT22;20137;48.834;8.732;2023-11-18T02:23:48;4.00;99.90
33831;DHT22;20137;48.834;8.732;2023-11-18T02:26:23;3.80;99.90
33831;DHT22;20137;48.834;8.732;2023-11-18T02:28:49;3.80;99.90
33831;DHT22;20137;48.834;8.732;2023-11-18T02:31:20;3.70;99.90
33831;DHT22;20137;48.834;8.732;2023-11-18T02:33:57;3.70;99.90
33831;DHT22;20137;48.834;8.732;2023-11-18T02:39:06;3.70;99.90
33831;DHT22;20137;48.834;8.732;2023-11-18T02:41:35;3.30;99.90
33831;DHT22;20137;48.834;8.732;2023-11-18T02:44:05;3.30;99.90
33831;DHT22;20137;48.834;8.732;2023-11-18T02:46:38;3.30;99.90
33831;DHT22;20137;48.834;8.732;2023-11-18T02:49:07;3.10;99.90
33831;DHT22;20137;48.834;8.732;2023-11-18T02:51:43;3.10;99.90
33831;DHT22;20137;48.834;8.732;2023-11-18T02:54:11;3.00;99.90
33831;DHT22;20137;48.834;8.732;2023-11-18T02:56:37;3.00;99.90
33831;DHT22;20137;48.834;8.732;2023-11-18T02:59:06;2.90;99.90
33831;DHT22;20137;48.834;8.732;2023-11-18T03:01:33;2.90;99.90
33831;DHT22;20137;48.834;8.732;2023-11-18T03:04:04;2.90;99.90
33831;DHT22;20137;48.834;8.732;2023-11-18T03:06:34;2.90;99.90
33831;DHT22;20137;48.834;8.732;2023-11-18T03:09:01;3.00;99.90
33831;DHT22;20137;48.834;8.732;2023-11-18T03:11:28;3.00;99.90
33831;DHT22;20137;48.834;8.732;2023-11-18T03:13:57;3.00;99.90
33831;DHT22;20137;48.834;8.732;2023-11-18T03:16:23;3.10;99.90
33831;DHT22;20137;48.834;8.732;2023-11-18T03:18:50;3.00;99.90
33831;DHT22;20137;48.834;8.732;2023-11-18T03:21:16;3.00;99.90
33831;DHT22;20137;48.834;8.732;2023-11-18T03:23:42;3.40;99.90
33831;DHT22;20137;48.834;8.732;2023-11-18T03:26:08;3.00;99.90
33831;DHT22;20137;48.834;8.732;2023-11-18T03:28:35;3.00;99.90
33831;DHT22;20137;48.834;8.732;2023-11-18T03:31:03;3.00;99.90
33831;DHT22;20137;48.834;8.732;2023-11-18T03:33:29;3.00;99.90
33831;DHT22;20137;48.834;8.732;2023-11-18T03:35:54;3.00;99.90
33831;DHT22;20137;48.834;8.732;2023-11-18T03:38:21;2.90;99.90
33831;DHT22;20137;48.834;8.732;2023-11-18T03:40:47;2.90;99.90
33831;DHT22;20137;48.834;8.732;2023-11-18T03:43:13;2.90;99.90
33831;DHT22;20137;48.834;8.732;2023-11-18T03:45:39;2.90;99.90
33831;DHT22;20137;48.834;8.732;2023-11-18T03:48:06;2.80;99.90
33831;DHT22;20137;48.834;8.732;2023-11-18T03:50:32;2.80;99.90
33831;DHT22;20137;48.834;8.732;2023-11-18T03:52:58;2.80;99.90
33831;DHT22;20137;48.834;8.732;2023-11-18T03:55:24;2.90;99.90
33831;DHT22;20137;48.834;8.732;2023-11-18T03:57:51;2.80;99.90
33831;DHT22;20137;48.834;8.732;2023-11-18T04:00:17;2.90;99.90
33831;DHT22;20137;48.834;8.732;2023-11-18T04:02:45;2.90;99.90
33831;DHT22;20137;48.834;8.732;2023-11-18T04:05:12;2.90;99.90
33831;DHT22;20137;48.834;8.732;2023-11-18T04:07:38;2.90;99.90
33831;DHT22;20137;48.834;8.732;2023-11-18T04:10:08;2.90;99.90
33831;DHT22;20137;48.834;8.732;2023-11-18T04:12:36;2.90;99.90
33831;DHT22;20137;48.834;8.732;2023-11-18T04:15:01;2.90;99.90
33831;DHT22;20137;48.834;8.732;2023-11-18T04:17:30;2.90;99.90
33831;DHT22;20137;48.834;8.732;2023-11-18T04:19:56;2.90;99.90
33831;DHT22;20137;48.834;8.732;2023-11-18T04:22:22;2.90;99.90
33831;DHT22;20137;48.834;8.732;2023-11-18T04:24:48;2.90;99.90
33831;DHT22;20137;48.834;8.732;2023-11-18T04:27:16;2.90;99.90
33831;DHT22;20137;48.834;8.732;2023-11-18T04:29:45;2.90;99.90
33831;DHT22;20137;48.834;8.732;2023-11-18T04:32:10;2.90;99.90
33831;DHT22;20137;48.834;8.732;2023-11-18T04:34:39;3.00;99.90
33831;DHT22;20137;48.834;8.732;2023-11-18T04:37:05;2.90;99.90
33831;DHT22;20137;48.834;8.732;2023-11-18T04:39:34;2.90;99.90
33831;DHT22;20137;48.834;8.732;2023-11-18T04:42:00;2.90;99.90
33831;DHT22;20137;48.834;8.732;2023-11-18T04:44:29;2.80;99.90
33831;DHT22;20137;48.834;8.732;2023-11-18T04:46:56;2.70;99.90
33831;DHT22;20137;48.834;8.732;2023-11-18T04:49:22;2.70;99.90
33831;DHT22;20137;48.834;8.732;2023-11-18T04:51:48;2.70;99.90
33831;DHT22;20137;48.834;8.732;2023-11-18T04:54:13;2.60;99.90
33831;DHT22;20137;48.834;8.732;2023-11-18T04:56:39;2.60;99.90
33831;DHT22;20137;48.834;8.732;2023-11-18T04:59:05;2.50;99.90
33831;DHT22;20137;48.834;8.732;2023-11-18T05:01:32;2.50;99.90
33831;DHT22;20137;48.834;8.732;2023-11-18T05:03:57;2.50;99.90
33831;DHT22;20137;48.834;8.732;2023-11-18T05:06:25;2.40;99.90
33831;DHT22;20137;48.834;8.732;2023-11-18T05:08:51;2.40;99.90
33831;DHT22;20137;48.834;8.732;2023-11-18T05:11:17;2.40;99.90
33831;DHT22;20137;48.834;8.732;2023-11-18T05:13:43;2.40;99.90
33831;DHT22;20137;48.834;8.732;2023-11-18T05:16:08;2.40;99.90
33831;DHT22;20137;48.834;8.732;2023-11-18T05:18:36;2.40;99.90
33831;DHT22;20137;48.834;8.732;2023-11-18T05:21:03;2.50;99.90
33831;DHT22;20137;48.834;8.732;2023-11-18T05:23:34;2.50;99.90
33831;DHT22;20137;48.834;8.732;2023-11-18T05:26:01;2.40;99.90
33831;DHT22;20137;48.834;8.732;2023-11-18T05:28:30;2.60;99.90
33831;DHT22;20137;48.834;8.732;2023-11-18T05:30:56;2.50;99.90
33831;DHT22;20137;48.834;8.732;2023-11-18T05:33:23;2.50;99.90
33831;DHT22;20137;48.834;8.732;2023-11-18T05:35:50;2.50;99.90
33831;DHT22;20137;48.834;8.732;2023-11-18T05:38:16;2.80;99.90
33831;DHT22;20137;48.834;8.732;2023-11-18T05:40:47;2.50;99.90
33831;DHT22;20137;48.834;8.732;2023-11-18T05:43:30;2.50;99.90
33831;DHT22;20137;48.834;8.732;2023-11-18T05:46:04;2.50;99.90
33831;DHT22;20137;48.834;8.732;2023-11-18T05:48:51;2.50;99.90
33831;DHT22;20137;48.834;8.732;2023-11-18T05:51:25;2.50;99.90
33831;DHT22;20137;48.834;8.732;2023-11-18T05:53:52;2.50;99.90
33831;DHT22;20137;48.834;8.732;2023-11-18T05:56:19;2.50;99.90
33831;DHT22;20137;48.834;8.732;2023-11-18T05:58:45;2.60;99.90
33831;DHT22;20137;48.834;8.732;2023-11-18T06:01:12;2.50;99.90
33831;DHT22;20137;48.834;8.732;2023-11-18T06:03:38;2.50;99.90
33831;DHT22;20137;48.834;8.732;2023-11-18T06:06:10;2.50;99.90
33831;DHT22;20137;48.834;8.732;2023-11-18T06:08:36;2.50;99.90
33831;DHT22;20137;48.834;8.732;2023-11-18T06:11:07;2.50;99.90
33831;DHT22;20137;48.834;8.732;2023-11-18T06:13:46;2.50;99.90
33831;DHT22;20137;48.834;8.732;2023-11-18T06:16:17;2.50;99.90
33831;DHT22;20137;48.834;8.732;2023-11-18T06:18:46;2.70;99.90
33831;DHT22;20137;48.834;8.732;2023-11-18T06:21:13;2.60;99.90
33831;DHT22;20137;48.834;8.732;2023-11-18T06:23:40;2.70;99.90
33831;DHT22;20137;48.834;8.732;2023-11-18T06:26:06;3.20;99.90
33831;DHT22;20137;48.834;8.732;2023-11-18T06:28:31;2.80;99.90
33831;DHT22;20137;48.834;8.732;2023-11-18T06:30:59;2.80;99.90
33831;DHT22;20137;48.834;8.732;2023-11-18T06:33:25;2.90;99.90
33831;DHT22;20137;48.834;8.732;2023-11-18T06:35:55;3.00;99.90
33831;DHT22;20137;48.834;8.732;2023-11-18T06:38:22;3.00;99.90
33831;DHT22;20137;48.834;8.732;2023-11-18T06:40:48;3.00;99.90
33831;DHT22;20137;48.834;8.732;2023-11-18T06:43:18;3.00;99.90
33831;DHT22;20137;48.834;8.732;2023-11-18T06:45:44;3.10;99.90
33831;DHT22;20137;48.834;8.732;2023-11-18T06:48:10;3.10;99.90
33831;DHT22;20137;48.834;8.732;2023-11-18T06:50:40;3.10;99.90
33831;DHT22;20137;48.834;8.732;2023-11-18T06:53:09;3.20;99.90
33831;DHT22;20137;48.834;8.732;2023-11-18T06:55:36;3.30;99.90
33831;DHT22;20137;48.834;8.732;2023-11-18T06:58:01;3.20;99.90
33831;DHT22;20137;48.834;8.732;2023-11-18T07:00:28;3.30;99.90
33831;DHT22;20137;48.834;8.732;2023-11-18T07:02:54;3.30;99.90
33831;DHT22;20137;48.834;8.732;2023-11-18T07:05:20;3.40;99.90
33831;DHT22;20137;48.834;8.732;2023-11-18T07:07:50;3.40;99.90
33831;DHT22;20137;48.834;8.732;2023-11-18T07:10:16;3.50;99.90
33831;DHT22;20137;48.834;8.732;2023-11-18T07:12:46;3.50;99.90
33831;DHT22;20137;48.834;8.732;2023-11-18T07:15:13;3.60;99.90
33831;DHT22;20137;48.834;8.732;2023-11-18T07:17:42;3.60;99.90
33831;DHT22;20137;48.834;8.732;2023-11-18T07:20:08;3.70;99.90
33831;DHT22;20137;48.834;8.732;2023-11-18T07:22:37;3.70;99.90
33831;DHT22;20137;48.834;8.732;2023-11-18T07:25:03;3.70;99.90
33831;DHT22;20137;48.834;8.732;2023-11-18T07:27:34;3.80;99.90
33831;DHT22;20137;48.834;8.732;2023-11-18T07:30:00;3.90;99.90
33831;DHT22;20137;48.834;8.732;2023-11-18T07:32:26;3.90;99.90
33831;DHT22;20137;48.834;8.732;2023-11-18T07:34:51;3.90;99.90
33831;DHT22;20137;48.834;8.732;2023-11-18T07:37:17;4.00;99.90
33831;DHT22;20137;48.834;8.732;2023-11-18T07:39:43;4.00;99.90
33831;DHT22;20137;48.834;8.732;2023-11-18T07:42:14;4.20;99.90
33831;DHT22;20137;48.834;8.732;2023-11-18T07:44:40;4.20;99.90
33831;DHT22;20137;48.834;8.732;2023-11-18T07:47:06;4.30;99.90
33831;DHT22;20137;48.834;8.732;2023-11-18T07:49:34;4.40;99.90
33831;DHT22;20137;48.834;8.732;2023-11-18T07:52:03;4.40;99.90
33831;DHT22;20137;48.834;8.732;2023-11-18T07:54:29;4.50;99.90
33831;DHT22;20137;48.834;8.732;2023-11-18T07:56:55;4.60;99.90
33831;DHT22;20137;48.834;8.732;2023-11-18T07:59:21;4.60;99.90
33831;DHT22;20137;48.834;8.732;2023-11-18T08:01:47;4.70;99.90
33831;DHT22;20137;48.834;8.732;2023-11-18T08:04:13;4.70;99.90
33831;DHT22;20137;48.834;8.732;2023-11-18T08:06:42;4.80;99.90
33831;DHT22;20137;48.834;8.732;2023-11-18T08:09:09;4.80;99.90
33831;DHT22;20137;48.834;8.732;2023-11-18T08:11:39;4.80;99.90
33831;DHT22;20137;48.834;8.732;2023-11-18T08:14:09;5.10;99.90
33831;DHT22;20137;48.834;8.732;2023-11-18T08:16:35;4.90;99.90
33831;DHT22;20137;48.834;8.732;2023-11-18T08:19:01;5.00;99.90
33831;DHT22;20137;48.834;8.732;2023-11-18T08:21:28;5.00;99.90
33831;DHT22;20137;48.834;8.732;2023-11-18T08:23:54;5.10;99.90
33831;DHT22;20137;48.834;8.732;2023-11-18T08:26:19;5.30;99.90
33831;DHT22;20137;48.834;8.732;2023-11-18T08:28:45;5.30;99.90
33831;DHT22;20137;48.834;8.732;2023-11-18T08:31:13;5.20;99.90
33831;DHT22;20137;48.834;8.732;2023-11-18T08:33:42;5.30;99.90
33831;DHT22;20137;48.834;8.732;2023-11-18T08:36:08;5.30;99.90
33831;DHT22;20137;48.834;8.732;2023-11-18T08:38:34;5.40;99.90
33831;DHT22;20137;48.834;8.732;2023-11-18T08:41:01;5.50;99.90
33831;DHT22;20137;48.834;8.732;2023-11-18T08:43:26;5.60;99.90
33831;DHT22;20137;48.834;8.732;2023-11-18T08:45:54;5.70;99.90
33831;DHT22;20137;48.834;8.732;2023-11-18T08:48:21;5.70;99.90
33831;DHT22;20137;48.834;8.732;2023-11-18T08:50:48;5.80;99.90
33831;DHT22;20137;48.834;8.732;2023-11-18T08:53:17;6.00;99.90
33831;DHT22;20137;48.834;8.732;2023-11-18T08:55:44;6.10;99.90
33831;DHT22;20137;48.834;8.732;2023-11-18T08:58:22;6.00;99.90
33831;DHT22;20137;48.834;8.732;2023-11-18T09:00:49;6.00;99.90
33831;DHT22;20137;48.834;8.732;2023-11-18T09:03:25;6.20;99.90
33831;DHT22;20137;48.834;8.732;2023-11-18T09:05:53;6.20;99.90
33831;DHT22;20137;48.834;8.732;2023-11-18T09:08:27;6.30;99.90
33831;DHT22;20137;48.834;8.732;2023-11-18T09:10:53;6.50;99.90
33831;DHT22;20137;48.834;8.732;2023-11-18T09:13:23;6.50;99.90
33831;DHT22;20137;48.834;8.732;2023-11-18T09:16:20;6.50;99.90
33831;DHT22;20137;48.834;8.732;2023-11-18T09:18:52;6.60;99.90
33831;DHT22;20137;48.834;8.732;2023-11-18T09:21:18;6.70;99.90
33831;DHT22;20137;48.834;8.732;2023-11-18T09:23:50;6.70;99.90
33831;DHT22;20137;48.834;8.732;2023-11-18T09:26:16;6.90;99.90
33831;DHT22;20137;48.834;8.732;2023-11-18T09:28:43;6.90;99.90
33831;DHT22;20137;48.834;8.732;2023-11-18T09:31:11;7.00;99.90
33831;DHT22;20137;48.834;8.732;2023-11-18T09:33:39;7.20;99.90
33831;DHT22;20137;48.834;8.732;2023-11-18T09:36:10;7.30;99.90
33831;DHT22;20137;48.834;8.732;2023-11-18T09:38:39;7.30;99.90
33831;DHT22;20137;48.834;8.732;2023-11-18T09:41:09;7.50;99.90
33831;DHT22;20137;48.834;8.732;2023-11-18T09:43:42;7.50;99.90
33831;DHT22;20137;48.834;8.732;2023-11-18T09:46:14;7.50;99.90
33831;DHT22;20137;48.834;8.732;2023-11-18T09:48:47;7.50;99.90
33831;DHT22;20137;48.834;8.732;2023-11-18T09:51:22;7.60;99.90
33831;DHT22;20137;48.834;8.732;2023-11-18T09:53:50;7.70;99.90
33831;DHT22;20137;48.834;8.732;2023-11-18T09:56:31;7.80;99.90
33831;DHT22;20137;48.834;8.732;2023-11-18T09:59:18;7.80;99.90
33831;DHT22;20137;48.834;8.732;2023-11-18T10:01:53;7.80;99.90
33831;DHT22;20137;48.834;8.732;2023-11-18T10:04:22;8.00;99.90
33831;DHT22;20137;48.834;8.732;2023-11-18T10:06:53;8.10;99.90
33831;DHT22;20137;48.834;8.732;2023-11-18T10:09:20;8.10;99.90
33831;DHT22;20137;48.834;8.732;2023-11-18T10:11:54;8.20;99.90
33831;DHT22;20137;48.834;8.732;2023-11-18T10:14:31;8.30;99.90
33831;DHT22;20137;48.834;8.732;2023-11-18T10:16:57;8.40;99.90
33831;DHT22;20137;48.834;8.732;2023-11-18T10:19:23;8.30;99.90
33831;DHT22;20137;48.834;8.732;2023-11-18T10:21:51;8.40;99.90
33831;DHT22;20137;48.834;8.732;2023-11-18T10:24:17;8.40;99.90
33831;DHT22;20137;48.834;8.732;2023-11-18T10:26:55;8.50;99.90
33831;DHT22;20137;48.834;8.732;2023-11-18T10:29:27;8.50;99.90
33831;DHT22;20137;48.834;8.732;2023-11-18T10:32:07;8.50;99.90
33831;DHT22;20137;48.834;8.732;2023-11-18T10:34:42;8.60;99.90
33831;DHT22;20137;48.834;8.732;2023-11-18T10:37:09;8.60;99.90
33831;DHT22;20137;48.834;8.732;2023-11-18T10:39:36;8.60;99.90
33831;DHT22;20137;48.834;8.732;2023-11-18T10:42:03;8.70;99.90
33831;DHT22;20137;48.834;8.732;2023-11-18T10:44:29;8.60;99.90
33831;DHT22;20137;48.834;8.732;2023-11-18T10:46:55;8.50;99.90
33831;DHT22;20137;48.834;8.732;2023-11-18T10:49:33;8.60;99.90
33831;DHT22;20137;48.834;8.732;2023-11-18T10:52:02;8.60;99.90
33831;DHT22;20137;48.834;8.732;2023-11-18T10:54:32;8.60;99.90
33831;DHT22;20137;48.834;8.732;2023-11-18T10:57:04;8.50;99.90
33831;DHT22;20137;48.834;8.732;2023-11-18T10:59:33;8.50;99.90
33831;DHT22;20137;48.834;8.732;2023-11-18T11:01:59;8.40;99.90
33831;DHT22;20137;48.834;8.732;2023-11-18T11:04:24;8.30;99.90
33831;DHT22;20137;48.834;8.732;2023-11-18T11:06:50;8.30;99.90
33831;DHT22;20137;48.834;8.732;2023-11-18T11:09:23;8.20;99.90
33831;DHT22;20137;48.834;8.732;2023-11-18T11:12:06;8.20;99.90
33831;DHT22;20137;48.834;8.732;2023-11-18T11:14:35;8.30;99.90
33831;DHT22;20137;48.834;8.732;2023-11-18T11:17:08;8.30;99.90
33831;DHT22;20137;48.834;8.732;2023-11-18T11:19:59;8.30;99.90
33831;DHT22;20137;48.834;8.732;2023-11-18T11:22:56;8.30;99.90
33831;DHT22;20137;48.834;8.732;2023-11-18T11:25:42;8.30;99.90
33831;DHT22;20137;48.834;8.732;2023-11-18T11:28:15;8.30;99.90
33831;DHT22;20137;48.834;8.732;2023-11-18T11:31:12;8.10;99.90
33831;DHT22;20137;48.834;8.732;2023-11-18T11:33:59;8.10;99.90
33831;DHT22;20137;48.834;8.732;2023-11-18T11:36:37;8.10;99.90
33831;DHT22;20137;48.834;8.732;2023-11-18T11:39:04;8.10;99.90
33831;DHT22;20137;48.834;8.732;2023-11-18T11:41:36;8.10;99.90
33831;DHT22;20137;48.834;8.732;2023-11-18T11:44:03;8.10;99.90
33831;DHT22;20137;48.834;8.732;2023-11-18T11:46:31;8.10;99.90
33831;DHT22;20137;48.834;8.732;2023-11-18T11:49:02;8.10;99.90
33831;DHT22;20137;48.834;8.732;2023-11-18T11:52:15;8.10;99.90
33831;DHT22;20137;48.834;8.732;2023-11-18T11:54:56;8.10;99.90
33831;DHT22;20137;48.834;8.732;2023-11-18T11:57:24;8.10;99.90
33831;DHT22;20137;48.834;8.732;2023-11-18T12:02:21;8.10;99.90
33831;DHT22;20137;48.834;8.732;2023-11-18T12:04:53;8.00;99.90
33831;DHT22;20137;48.834;8.732;2023-11-18T12:07:21;8.00;99.90
33831;DHT22;20137;48.834;8.732;2023-11-18T12:09:49;8.00;99.90
33831;DHT22;20137;48.834;8.732;2023-11-18T12:12:20;8.00;99.90
33831;DHT22;20137;48.834;8.732;2023-11-18T12:14:50;7.90;99.90
33831;DHT22;20137;48.834;8.732;2023-11-18T12:17:18;7.90;99.90
33831;DHT22;20137;48.834;8.732;2023-11-18T12:19:47;7.90;99.90
33831;DHT22;20137;48.834;8.732;2023-11-18T12:33:00;7.60;99.90
33831;DHT22;20137;48.834;8.732;2023-11-18T12:35:30;7.60;99.90
33831;DHT22;20137;48.834;8.732;2023-11-18T12:40:56;7.60;99.90
33831;DHT22;20137;48.834;8.732;2023-11-18T12:49:07;7.30;99.90
33831;DHT22;20137;48.834;8.732;2023-11-18T12:51:45;7.30;99.90
33831;DHT22;20137;48.834;8.732;2023-11-18T12:54:11;7.20;99.90
33831;DHT22;20137;48.834;8.732;2023-11-18T12:56:40;7.20;99.90
33831;DHT22;20137;48.834;8.732;2023-11-18T12:59:10;7.20;99.90
33831;DHT22;20137;48.834;8.732;2023-11-18T13:01:38;7.10;99.90
33831;DHT22;20137;48.834;8.732;2023-11-18T13:04:07;7.20;99.90
33831;DHT22;20137;48.834;8.732;2023-11-18T13:06:34;7.20;99.90
33831;DHT22;20137;48.834;8.732;2023-11-18T13:09:03;7.20;99.90
33831;DHT22;20137;48.834;8.732;2023-11-18T13:11:35;7.30;99.90
33831;DHT22;20137;48.834;8.732;2023-11-18T13:14:00;7.20;99.90
33831;DHT22;20137;48.834;8.732;2023-11-18T13:16:28;7.20;99.90
33831;DHT22;20137;48.834;8.732;2023-11-18T13:18:53;7.20;99.90
33831;DHT22;20137;48.834;8.732;2023-11-18T13:21:21;7.10;99.90
33831;DHT22;20137;48.834;8.732;2023-11-18T13:23:49;7.10;99.90
33831;DHT22;20137;48.834;8.732;2023-11-18T13:26:19;7.10;99.90
33831;DHT22;20137;48.834;8.732;2023-11-18T13:28:48;7.00;99.90
33831;DHT22;20137;48.834;8.732;2023-11-18T13:31:15;7.00;99.90
33831;DHT22;20137;48.834;8.732;2023-11-18T13:33:43;7.00;99.90
33831;DHT22;20137;48.834;8.732;2023-11-18T13:36:10;7.00;99.90
33831;DHT22;20137;48.834;8.732;2023-11-18T13:38:39;7.00;99.90
33831;DHT22;20137;48.834;8.732;2023-11-18T13:41:07;7.00;99.90
33831;DHT22;20137;48.834;8.732;2023-11-18T13:43:44;7.00;99.90
33831;DHT22;20137;48.834;8.732;2023-11-18T13:46:12;7.10;99.90
33831;DHT22;20137;48.834;8.732;2023-11-18T13:48:38;7.10;99.90
33831;DHT22;20137;48.834;8.732;2023-11-18T13:51:10;7.00;99.90
33831;DHT22;20137;48.834;8.732;2023-11-18T13:53:40;7.00;99.90
33831;DHT22;20137;48.834;8.732;2023-11-18T13:56:07;7.10;99.90
33831;DHT22;20137;48.834;8.732;2023-11-18T13:58:35;6.90;99.90
33831;DHT22;20137;48.834;8.732;2023-11-18T14:01:08;6.90;99.90
33831;DHT22;20137;48.834;8.732;2023-11-18T14:03:40;6.90;99.90
33831;DHT22;20137;48.834;8.732;2023-11-18T14:06:08;6.90;99.90
33831;DHT22;20137;48.834;8.732;2023-11-18T14:08:38;6.90;99.90
33831;DHT22;20137;48.834;8.732;2023-11-18T14:11:05;6.80;99.90
33831;DHT22;20137;48.834;8.732;2023-11-18T14:13:32;6.80;99.90
33831;DHT22;20137;48.834;8.732;2023-11-18T14:16:00;6.80;99.90
33831;DHT22;20137;48.834;8.732;2023-11-18T14:18:27;6.80;99.90
33831;DHT22;20137;48.834;8.732;2023-11-18T14:20:53;6.80;99.90
33831;DHT22;20137;48.834;8.732;2023-11-18T14:23:20;6.70;99.90
33831;DHT22;20137;48.834;8.732;2023-11-18T14:25:47;6.70;99.90
33831;DHT22;20137;48.834;8.732;2023-11-18T14:28:13;6.60;99.90
33831;DHT22;20137;48.834;8.732;2023-11-18T14:30:39;6.60;99.90
33831;DHT22;20137;48.834;8.732;2023-11-18T14:33:05;6.60;99.90
33831;DHT22;20137;48.834;8.732;2023-11-18T14:35:32;6.50;99.90
33831;DHT22;20137;48.834;8.732;2023-11-18T14:37:59;6.50;99.90
33831;DHT22;20137;48.834;8.732;2023-11-18T14:40:26;6.40;99.90
33831;DHT22;20137;48.834;8.732;2023-11-18T14:42:53;6.40;99.90
33831;DHT22;20137;48.834;8.732;2023-11-18T14:45:20;6.40;99.90
33831;DHT22;20137;48.834;8.732;2023-11-18T14:47:46;6.40;99.90
33831;DHT22;20137;48.834;8.732;2023-11-18T14:50:13;6.40;99.90
33831;DHT22;20137;48.834;8.732;2023-11-18T14:52:50;6.30;99.90
33831;DHT22;20137;48.834;8.732;2023-11-18T14:55:17;6.30;99.90
33831;DHT22;20137;48.834;8.732;2023-11-18T14:57:43;6.30;99.90
33831;DHT22;20137;48.834;8.732;2023-11-18T15:00:10;6.30;99.90
33831;DHT22;20137;48.834;8.732;2023-11-18T15:02:52;6.30;99.90
33831;DHT22;20137;48.834;8.732;2023-11-18T15:05:20;6.30;99.90
33831;DHT22;20137;48.834;8.732;2023-11-18T15:07:46;6.30;99.90
33831;DHT22;20137;48.834;8.732;2023-11-18T15:10:17;6.30;99.90
33831;DHT22;20137;48.834;8.732;2023-11-18T15:12:47;6.30;99.90
33831;DHT22;20137;48.834;8.732;2023-11-18T15:15:13;6.20;99.90
33831;DHT22;20137;48.834;8.732;2023-11-18T15:17:45;6.30;99.90
33831;DHT22;20137;48.834;8.732;2023-11-18T15:20:12;6.20;99.90
33831;DHT22;20137;48.834;8.732;2023-11-18T15:22:38;6.20;99.90
33831;DHT22;20137;48.834;8.732;2023-11-18T15:25:08;6.10;99.90
33831;DHT22;20137;48.834;8.732;2023-11-18T15:27:43;6.10;99.90
33831;DHT22;20137;48.834;8.732;2023-11-18T15:30:11;6.10;99.90
33831;DHT22;20137;48.834;8.732;2023-11-18T15:32:41;6.10;99.90
33831;DHT22;20137;48.834;8.732;2023-11-18T15:35:08;6.00;99.90
33831;DHT22;20137;48.834;8.732;2023-11-18T15:37:37;6.00;99.90
33831;DHT22;20137;48.834;8.732;2023-11-18T15:40:07;6.00;99.90
33831;DHT22;20137;48.834;8.732;2023-11-18T15:42:42;6.00;99.90
33831;DHT22;20137;48.834;8.732;2023-11-18T15:45:12;6.00;99.90
33831;DHT22;20137;48.834;8.732;2023-11-18T15:47:39;6.00;99.90
33831;DHT22;20137;48.834;8.732;2023-11-18T15:50:06;6.10;99.90
33831;DHT22;20137;48.834;8.732;2023-11-18T15:52:33;6.00;99.90
33831;DHT22;20137;48.834;8.732;2023-11-18T15:55:01;5.90;99.90
33831;DHT22;20137;48.834;8.732;2023-11-18T15:57:27;5.90;99.90
33831;DHT22;20137;48.834;8.732;2023-11-18T15:59:54;5.90;99.90
33831;DHT22;20137;48.834;8.732;2023-11-18T16:02:22;5.90;99.90
33831;DHT22;20137;48.834;8.732;2023-11-18T16:04:49;5.90;99.90
33831;DHT22;20137;48.834;8.732;2023-11-18T16:07:14;5.90;99.90
33831;DHT22;20137;48.834;8.732;2023-11-18T16:09:40;5.90;99.90
33831;DHT22;20137;48.834;8.732;2023-11-18T16:12:06;5.90;99.90
33831;DHT22;20137;48.834;8.732;2023-11-18T16:14:32;5.80;99.90
33831;DHT22;20137;48.834;8.732;2023-11-18T16:16:58;5.80;99.90
33831;DHT22;20137;48.834;8.732;2023-11-18T16:19:24;5.80;99.90